Terminal Aerodrome Forecast
Issued by NWS

Home | Current Version | Previous Version | Text Only | Print | Product List | Glossary On
Versions: 1 2 3 4 5 6 7 8 9 10 11 12 13 14 15 16 17 18 19 20 21 22
000
FTUS43 KMQT 270500
TAFCMX
TAF
KCMX 270538Z 2706/2806 36010KT 2SM -SHSN OVC015
      TEMPO 2706/2707 1SM -SHSN
     FM270700 35010KT 3SM -SHSN OVC020
     FM271800 31009KT P6SM -SHSN BKN030
     FM280000 27006KT 5SM -SHSN OVC025=

USA.gov is the U.S. government's official web portal to all federal, state and local government web resources and services.